Dean Chapel, Louisiana
Current Conditions -  °F | °C
As of 5:53 PM on Thursday 27 Nov 2014 (Local Time) from KMLU Reporting Station
Clear Clear  
Wind Chill: 45°   Ceiling: Unl
Heat Index: 45°   Visibility: 10mi
Dew Point: 35°   Wind: 3mph
Humidity: 68%   Direction: 80°E
Pressure: 30.48"   Gusts: NA
Location:  32.5473°N, 92.2007°W
Report Text: KMLU 272353Z 08003KT 10SM CLR 07/02 A3048 RMK AO2 SLP322 T00720017 10122 20072 51002
Loading
Personal Weather Stations






























Interactive Weather Map New forecast layout! Learn more

10-Day Weather Forecast

Advertisements
Track Severe Weather on mobile